Flight Track Log - Related Links

Times and Time Zones

All times are in EDT time to prevent confusion due to time zone crossing. See the AWI3764 flight status page for this flight to view local times or setup timezone preferences in your user account.

Time Position Orientation Groundspeed Altitude Reporting Facility
EDT Latitude Longitude Course Direction KTS MPH feet Rate Location/Type
Wed 01:16:36 PM 38.8856 -77.0717 38° Northeast 177 204 2,100  Level Washington Center
Wed 01:17:37 PM 38.9328 -77.1233 320° Northwest 198 228 4,200 2,430 Climbing Washington Center
Wed 01:18:37 PM 38.9883 -77.1806 321° Northwest 233 268 7,000 2,579 Climbing Washington Center
Wed 01:19:00 PM 39.0433 -76.4917 63° Northeast  Level FlightAware Approximate
Wed 01:19:38 PM 39.0475 -77.1283 34° Northeast 197 227 9,400  Level Washington Center
Wed 01:20:00 PM 39.0992 -76.3575 61° Northeast  Level FlightAware Approximate
Wed 01:20:37 PM 39.0592 -77.0192 82° East 197 227 11,700  Level Washington Center
Wed 01:21:00 PM 39.1433 -76.2234 38° Northeast  Level FlightAware Approximate
Wed 01:21:37 PM 39.0708 -76.9044 83° East 283 326 13,700  Level Washington Center
Wed 01:22:38 PM 39.0847 -76.7869 81° East 301 346 15,500 1,815 Climbing Washington Center
Wed 01:23:36 PM 39.0983 -76.6642 82° East 325 374 17,300 1,613 Climbing Washington Center
Wed 01:24:37 PM 39.1139 -76.5414 81° East 339 390 18,700 1,339 Climbing Washington Center
Wed 01:25:37 PM 39.1294 -76.4158 81° East 350 403 20,000 1,322 Climbing Washington Center
Wed 01:26:35 PM 39.1428 -76.2819 83° East 356 410 21,300 1,311 Climbing Washington Center
Wed 01:27:36 PM 39.1622 -76.1511 79° East 363 418 22,600 1,033 Climbing Washington Center
Wed 01:28:37 PM 39.1772 -76.0147 82° East 373 429 23,400 443 Climbing Washington Center
Wed 01:29:38 PM 39.2006 -75.8756 78° East 379 436 23,500 202 Climbing Washington Center
Wed 01:30:36 PM 39.2822 -75.7658 46° Northeast 395 455 23,800 706 Climbing Washington Center
Wed 01:31:37 PM 39.3697 -75.6533 45° Northeast 412 474 24,900 934 Climbing Washington Center
Wed 01:32:38 PM 39.4531 -75.5431 46° Northeast 419 482 25,700 843 Climbing Washington Center
Wed 01:33:38 PM 39.5383 -75.4356 44° Northeast 424 488 26,600 661 Climbing Washington Center
Wed 01:34:36 PM 39.6236 -75.3222 46° Northeast 429 494 27,000 203 Climbing Washington Center
Wed 01:35:36 PM 39.7108 -75.2003 47° Northeast 435 501 27,000  Level Washington Center
Wed 01:36:36 PM 39.7875 -75.0892 48° Northeast 450 518 27,000  Level Washington Center
Wed 01:38:53 PM 39.9667 -74.8308 48° Northeast 441 507 27,000  Level New York Center
Wed 01:39:51 PM 40.0694 -74.6875 47° Northeast 446 513 27,000  Level New York Center
Wed 01:40:53 PM 40.1522 -74.5728 47° Northeast 446 513 27,000  Level New York Center
Wed 01:41:54 PM 40.2308 -74.4656 46° Northeast 451 519 27,000  Level New York Center
Wed 01:42:52 PM 40.3136 -74.3475 47° Northeast 451 519 27,000  Level New York Center
Wed 01:43:52 PM 40.3964 -74.2267 48° Northeast 446 513 27,000  Level New York Center
Wed 01:44:53 PM 40.4789 -74.1106 47° Northeast 446 513 27,000  Level New York Center
Wed 01:45:51 PM 40.5636 -73.9919 47° Northeast 446 513 27,000  Level New York Center
Wed 01:46:52 PM 40.6461 -73.8700 48° Northeast 446 513 27,000  Level New York Center
Wed 01:48:27 PM 40.7742 -73.6892 47° Northeast 444 511 27,000  Level Boston Center
Wed 01:49:30 PM 40.8569 -73.5686 48° Northeast 444 511 27,000  Level Boston Center
Wed 01:50:31 PM 40.9572 -73.4214 48° Northeast 445 512 27,000  Level Boston Center
Wed 01:51:31 PM 41.0392 -73.3042 47° Northeast 445 512 27,000  Level Boston Center
Wed 01:52:32 PM 41.1214 -73.1828 48° Northeast 445 512 27,000  Level Boston Center
Wed 01:53:36 PM 41.1958 -73.0519 53° Northeast 445 512 27,000  Level Boston Center
Wed 01:54:37 PM 41.2600 -72.9125 58° Northeast 446 513 27,000  Level Boston Center
Wed 01:55:38 PM 41.3311 -72.7617 58° Northeast 446 513 27,000  Level Boston Center
Wed 01:56:42 PM 41.3969 -72.6192 58° Northeast 447 514 27,000  Level Boston Center
Wed 01:57:43 PM 41.4797 -72.4903 49° Northeast 456 525 27,000  Level Boston Center
Wed 01:58:43 PM 41.5714 -72.3517 48° Northeast 455 524 27,000  Level Boston Center
Wed 01:59:44 PM 41.6547 -72.2264 48° Northeast 455 524 27,000  Level Boston Center
Wed 02:00:47 PM 41.7383 -72.1000 48° Northeast 456 525 27,000  Level Boston Center
Wed 02:01:48 PM 41.8208 -71.9728 49° Northeast 456 525 27,000  Level Boston Center
Wed 02:02:52 PM 41.9211 -71.8194 49° Northeast 456 525 27,000  Level Boston Center
Wed 02:03:52 PM 42.0056 -71.6922 48° Northeast 457 526 27,000  Level Boston Center
Wed 02:04:55 PM 42.0883 -71.5642 49° Northeast 457 526 27,000 -439 Level Boston Center
Wed 02:05:55 PM 42.1708 -71.4342 49° Northeast 458 527 26,100 -942 Descending Boston Center
Wed 02:06:56 PM 42.2567 -71.3039 48° Northeast 462 532 25,100 -968 Descending Boston Center
Wed 02:07:59 PM 42.3436 -71.1647 50° Northeast 457 526 24,100 -532 Descending Boston Center
Wed 02:09:00 PM 42.4267 -71.0375 48° Northeast 453 521 24,000 -49 Descending Boston Center
Wed 02:10:01 PM 42.5053 -70.9117 50° Northeast 442 509 24,000 -726 Level Boston Center
Wed 02:11:04 PM 42.5944 -70.7708 49° Northeast 442 509 22,500 -1,597 Descending Boston Center
Wed 02:12:05 PM 42.6639 -70.6619 49° Northeast 431 496 20,700 -2,066 Descending Boston Center
Wed 02:13:06 PM 42.7744 -70.5792 29° Northeast 392 451 18,300 -2,112 Descending Boston Center
Wed 02:14:10 PM 42.8764 -70.5161 24° Northeast 377 434 16,300 -1,728 Descending Boston Center
Wed 02:15:11 PM 42.9644 -70.4586 26° Northeast 357 411 14,700 -1,686 Descending Boston Center
Wed 02:16:11 PM 43.0614 -70.3900 27° Northeast 364 419 12,900 -1,742 Descending Boston Center
Wed 02:17:15 PM 43.1450 -70.3150 33° Northeast 360 414 11,100 -1,548 Descending Boston Center
Wed 02:18:15 PM 43.2300 -70.3242 356° North 314 361 9,700 -1,548 Descending Boston Center
Wed 02:19:19 PM 43.3094 -70.3706 337° Northwest 291 335 7,900 -1,872 Descending Boston Center
Wed 02:20:20 PM 43.3772 -70.4131 336° Northwest 270 311 5,800 -2,066 Descending Boston Center
Wed 02:21:21 PM 43.4494 -70.4625 334° Northwest 270 311 3,700 -1,820 Descending Boston Center
Wed 02:22:22 PM 43.5183 -70.4908 343° North 259 298 2,100 -816 Descending Boston Center
Wed 02:23:26 PM 43.5756 -70.4856 North 199 229 2,000 -97 Descending Boston Center
Wed 02:24:26 PM 43.6208 -70.4542 27° Northeast 174 200 1,900 -290 Descending Boston Center
Wed 02:25:30 PM 43.6489 -70.4061 51° Northeast 163 188 1,400 -672 Descending Boston Center
Wed 02:26:31 PM 43.6475 -70.3472 92° East 148 170 500 -590 Descending Boston Center
Wed 02:27:32 PM 43.6442 -70.2981 95° East 145 167 200 -295 Descending Boston Center

Login

Don't have an account? Register now (free) for customized features, flight alerts, and more!